Time;durP1;ratioP1;P1;durP2;ratioP2;P2;SDS_P1;SDS_P2;PMS_P1;PMS_P2;Temp;Humidity;BMP_temperature;BMP_pressure;BME280_temperature;BME280_humidity;BME280_pressure;Samples;Min_cycle;Max_cycle;Signal;HPM_P1;HPM_P2
2022/10/12 00:00:25;;;;;;;48.13;18.37;;;;;;;7.16;84.90;101740.89;5242997;55;1141067;-74
2022/10/12 00:05:33;;;;;;;54.10;20.43;;;;;;;7.18;84.97;101746.09;5242282;55;1141124;-75
2022/10/12 00:10:43;;;;;;;74.70;27.83;;;;;;;7.10;84.78;101748.19;5241861;55;1141125;-75
2022/10/12 00:15:49;;;;;;;63.43;23.47;;;;;;;7.05;85.58;101753.18;5236147;55;1136886;-73
2022/10/12 00:21:07;;;;;;;68.50;23.20;;;;;;;7.07;86.17;101750.48;5243277;55;1136893;-75
2022/10/12 00:26:20;;;;;;;69.23;21.67;;;;;;;7.05;86.13;101753.18;5261150;55;1136999;-75
2022/10/12 00:31:27;;;;;;;53.00;18.33;;;;;;;7.02;85.95;101764.32;5212666;55;1136943;-74
2022/10/12 00:36:35;;;;;;;44.70;17.20;;;;;;;7.00;85.88;101765.70;5179976;56;1136803;-73
2022/10/12 00:41:44;;;;;;;38.77;13.67;;;;;;;6.94;85.89;101765.95;5182027;56;1136924;-75
2022/10/12 00:46:50;;;;;;;31.87;11.67;;;;;;;6.86;85.56;101769.37;5268061;55;1136877;-75
2022/10/12 00:52:06;;;;;;;35.07;12.17;;;;;;;6.84;85.47;101767.27;5267901;55;1139437;-75
2022/10/12 00:57:16;;;;;;;27.17;11.23;;;;;;;6.82;85.36;101766.47;5267646;56;1138983;-74
2022/10/12 01:02:27;;;;;;;41.23;11.73;;;;;;;6.78;85.90;101761.40;5267204;56;1137215;-75
2022/10/12 01:07:33;;;;;;;31.70;11.03;;;;;;;6.70;85.90;101769.63;5268032;56;1135000;-74
2022/10/12 01:12:42;;;;;;;29.90;10.95;;;;;;;6.60;85.95;101767.81;5272960;55;1138977;-75
2022/10/12 01:18:00;;;;;;;27.43;10.30;;;;;;;6.49;86.09;101762.61;5100095;56;1139037;-75
2022/10/12 01:23:25;;;;;;;32.00;10.00;;;;;;;6.40;86.49;101757.28;5251608;55;1139064;-75
2022/10/12 01:28:55;;;;;;;24.13;9.67;;;;;;;6.38;86.66;101760.42;5220810;55;1141205;-75
2022/10/12 01:34:11;;;;;;;28.63;12.07;;;;;;;6.36;86.99;101755.69;5137420;56;1137331;-74
2022/10/12 01:39:30;;;;;;;31.57;14.50;;;;;;;6.38;87.16;101754.31;5163518;55;1139483;-75
2022/10/12 01:44:36;;;;;;;30.48;11.63;;;;;;;6.36;87.30;101754.38;5232920;55;1139203;-74
2022/10/12 01:49:42;;;;;;;25.03;10.53;;;;;;;6.26;87.05;101750.41;5233027;55;1139028;-73
2022/10/12 01:55:18;;;;;;;25.77;9.40;;;;;;;6.16;87.24;101764.81;5233215;55;1139227;-75
2022/10/12 02:00:24;;;;;;;31.70;9.00;;;;;;;6.10;87.86;101772.95;5233028;55;1136913;-76
2022/10/12 02:05:56;;;;;;;22.10;9.23;;;;;;;6.15;88.48;101765.72;5233265;55;1137262;-74
2022/10/12 02:11:09;;;;;;;35.73;9.13;;;;;;;6.17;88.38;101762.58;5233231;55;1139392;-74
2022/10/12 02:16:22;;;;;;;18.27;9.17;;;;;;;6.12;88.14;101777.20;5232946;55;1137132;-74
2022/10/12 02:21:32;;;;;;;19.80;9.50;;;;;;;6.09;88.35;101776.48;5191734;55;1134989;-74
2022/10/12 02:26:42;;;;;;;33.07;11.47;;;;;;;6.04;88.47;101772.72;5159222;55;1134923;-75
2022/10/12 02:32:01;;;;;;;30.17;11.70;;;;;;;5.90;88.28;101768.45;5241523;56;1136895;-73
2022/10/12 02:37:18;;;;;;;31.33;11.33;;;;;;;5.86;88.82;101776.86;5266548;55;1137082;-75
2022/10/12 02:42:29;;;;;;;22.60;10.10;;;;;;;5.87;88.98;101774.64;5266731;55;1137590;-75
2022/10/12 02:47:38;;;;;;;31.50;10.20;;;;;;;5.93;89.10;101771.83;5267278;56;1139534;-74
2022/10/12 02:52:44;;;;;;;20.67;8.80;;;;;;;5.89;89.46;101770.22;5182168;56;1139189;-75
2022/10/12 02:57:50;;;;;;;26.73;9.57;;;;;;;5.81;89.33;101774.86;5210245;56;1133084;-74
2022/10/12 03:02:56;;;;;;;27.07;10.27;;;;;;;5.78;89.64;101780.25;5210918;56;1133015;-74
2022/10/12 03:08:02;;;;;;;26.23;8.93;;;;;;;5.67;89.43;101775.83;5222011;56;1139517;-74
2022/10/12 03:13:08;;;;;;;21.23;8.33;;;;;;;5.62;89.87;101776.03;5126273;56;1137007;-74
2022/10/12 03:18:14;;;;;;;24.90;8.98;;;;;;;5.58;89.48;101765.69;5210893;56;1136958;-74
2022/10/12 03:23:20;;;;;;;24.98;9.28;;;;;;;5.56;88.08;101775.38;5210653;56;1139052;-75
2022/10/12 03:28:26;;;;;;;26.10;9.77;;;;;;;5.56;88.18;101782.80;5180377;56;1136903;-73
2022/10/12 03:33:32;;;;;;;30.60;9.57;;;;;;;5.56;88.04;101778.86;5182894;56;1136949;-74
2022/10/12 03:38:39;;;;;;;37.07;11.20;;;;;;;5.47;87.47;101790.16;5067099;57;1136906;-75
2022/10/12 03:43:46;;;;;;;26.10;8.90;;;;;;;5.37;88.05;101788.76;5066908;57;1139118;-73
2022/10/12 03:48:51;;;;;;;32.20;14.50;;;;;;;5.37;88.18;101788.30;5207056;56;1137180;-74
2022/10/12 03:53:58;;;;;;;27.17;11.10;;;;;;;5.38;88.05;101788.70;5207084;56;1140664;-73
2022/10/12 03:59:05;;;;;;;40.50;11.83;;;;;;;5.38;88.42;101787.85;5210353;56;1139019;-74
2022/10/12 04:04:11;;;;;;;37.20;11.90;;;;;;;5.44;88.62;101781.94;5217990;56;1139104;-73
2022/10/12 04:09:17;;;;;;;26.40;11.67;;;;;;;5.46;88.56;101784.06;5183154;56;1139068;-74
2022/10/12 04:14:22;;;;;;;27.80;10.90;;;;;;;5.44;88.49;101787.19;5201226;56;1139454;-73
2022/10/12 04:19:28;;;;;;;54.53;14.53;;;;;;;5.34;87.77;101798.94;5132506;56;1138995;-74
2022/10/12 04:24:35;;;;;;;27.33;10.30;;;;;;;5.25;88.20;101792.23;5126967;57;1139220;-73
2022/10/12 04:29:41;;;;;;;23.43;7.90;;;;;;;5.22;88.31;101788.39;5174899;56;1139200;-74
2022/10/12 04:34:47;;;;;;;20.23;8.13;;;;;;;5.23;88.23;101787.48;5217531;56;1139179;-73
2022/10/12 04:39:53;;;;;;;47.33;13.10;;;;;;;5.19;88.03;101795.53;5219243;56;1136961;-75
2022/10/12 04:44:59;;;;;;;27.83;10.10;;;;;;;5.11;88.08;101794.48;5228066;56;1139310;-73
2022/10/12 04:50:05;;;;;;;28.20;11.40;;;;;;;5.08;88.46;101791.09;5247194;56;1139136;-75
2022/10/12 04:55:11;;;;;;;27.03;10.73;;;;;;;5.00;88.36;101790.06;5211412;56;1139015;-74
2022/10/12 05:00:18;;;;;;;40.93;19.17;;;;;;;4.96;88.56;101793.69;5234621;56;1139031;-74
2022/10/12 05:05:24;;;;;;;42.20;18.43;;;;;;;4.82;88.05;101810.34;5216558;56;1139045;-74
2022/10/12 05:10:30;;;;;;;40.70;15.90;;;;;;;4.73;88.50;101802.34;5210761;56;1139007;-74
2022/10/12 05:15:36;;;;;;;42.33;18.37;;;;;;;4.74;88.80;101809.27;5187295;56;1141354;-74
2022/10/12 05:20:42;;;;;;;40.83;18.60;;;;;;;4.72;88.85;101813.73;5176897;56;1139506;-74
2022/10/12 05:25:50;;;;;;;38.40;14.70;;;;;;;4.69;89.05;101807.72;5186480;56;1139042;-75
2022/10/12 05:30:56;;;;;;;60.63;21.73;;;;;;;4.64;89.17;101812.24;5165813;56;1138987;-74
2022/10/12 05:36:02;;;;;;;42.53;18.55;;;;;;;4.60;89.52;101817.58;5175044;56;1139009;-74
2022/10/12 05:41:08;;;;;;;58.90;18.57;;;;;;;4.64;89.64;101818.80;5188116;56;1139005;-74
2022/10/12 05:46:13;;;;;;;50.97;17.70;;;;;;;4.73;90.12;101808.89;5206821;55;1141059;-73
2022/10/12 05:51:18;;;;;;;46.60;18.75;;;;;;;4.91;91.09;101812.19;5208916;55;1139365;-73
2022/10/12 05:56:24;;;;;;;105.53;38.90;;;;;;;5.10;91.45;101807.64;5203635;55;1139489;-74
2022/10/12 06:01:30;;;;;;;74.47;28.33;;;;;;;5.12;90.72;101820.25;5217559;55;1141508;-74
2022/10/12 06:06:36;;;;;;;61.47;21.37;;;;;;;4.99;90.99;101825.50;5193257;56;1139103;-74
2022/10/12 06:11:42;;;;;;;43.20;16.55;;;;;;;5.17;92.43;101830.99;5199092;56;1139029;-74
2022/10/12 06:16:47;;;;;;;37.13;14.00;;;;;;;5.43;92.90;101843.65;5196155;56;1141092;-73
2022/10/12 06:21:53;;;;;;;18.13;9.17;;;;;;;5.61;93.11;101839.92;5218197;56;1141133;-73
2022/10/12 06:26:59;;;;;;;31.10;11.70;;;;;;;5.76;93.68;101838.97;5218371;56;1139324;-74
2022/10/12 06:32:04;;;;;;;25.93;10.67;;;;;;;5.93;94.84;101845.80;5119247;56;1137476;-74
2022/10/12 06:37:10;;;;;;;18.63;7.30;;;;;;;6.41;97.35;101837.83;5100022;56;1139472;-74
2022/10/12 06:42:17;;;;;;;21.90;8.87;;;;;;;6.94;97.63;101838.73;5098617;56;1136985;-74
2022/10/12 06:47:24;;;;;;;18.37;8.03;;;;;;;7.14;96.38;101839.22;5218912;56;1137136;-74
2022/10/12 06:52:30;;;;;;;23.67;8.53;;;;;;;7.22;96.62;101843.69;5204113;56;1137036;-75
2022/10/12 06:57:37;;;;;;;18.30;8.43;;;;;;;7.33;96.76;101846.73;5205188;56;1135199;-75
2022/10/12 07:02:43;;;;;;;24.63;8.77;;;;;;;7.38;97.05;101846.91;5204624;56;1137190;-74
2022/10/12 07:07:49;;;;;;;21.67;7.90;;;;;;;7.39;97.02;101855.66;5204335;56;1137166;-75
2022/10/12 07:12:55;;;;;;;20.20;9.33;;;;;;;7.31;96.62;101854.70;5201858;56;1137521;-74
2022/10/12 07:18:00;;;;;;;20.13;8.90;;;;;;;7.31;97.03;101859.95;5190439;56;1137362;-72
2022/10/12 07:23:07;;;;;;;24.10;10.77;;;;;;;7.37;97.11;101866.25;5207990;56;1137098;-74
2022/10/12 07:28:12;;;;;;;27.03;10.03;;;;;;;7.37;97.00;101861.45;5209397;56;1139036;-75
2022/10/12 07:33:19;;;;;;;22.07;9.23;;;;;;;7.35;97.46;101865.46;5150634;56;1139373;-75
2022/10/12 07:38:24;;;;;;;28.13;11.17;;;;;;;7.39;97.70;101868.37;5151253;57;1135097;-74
2022/10/12 07:43:32;;;;;;;31.07;10.67;;;;;;;7.43;97.88;101866.92;5154985;57;1139265;-74
2022/10/12 07:48:40;;;;;;;34.77;11.10;;;;;;;7.47;97.79;101877.27;5154319;57;1139609;-75
2022/10/12 07:53:46;;;;;;;25.67;10.00;;;;;;;7.58;98.64;101867.12;5154613;57;1138930;-75
2022/10/12 07:58:55;;;;;;;22.93;10.73;;;;;;;7.69;98.53;101873.22;5080369;57;1136994;-76
2022/10/12 08:04:02;;;;;;;28.55;10.48;;;;;;;7.67;98.63;101872.43;5049893;57;1141039;-75
2022/10/12 08:09:08;;;;;;;26.50;10.58;;;;;;;7.73;100.00;101864.27;5027910;56;1141197;-75
2022/10/12 08:14:15;;;;;;;30.63;11.10;;;;;;;7.79;100.00;101874.55;5073405;57;1143440;-74
2022/10/12 08:19:21;;;;;;;25.60;13.20;;;;;;;7.93;100.00;101873.92;5114798;57;1143257;-74
2022/10/12 08:24:27;;;;;;;36.17;12.47;;;;;;;8.12;100.00;101868.19;5109377;57;1143143;-76
2022/10/12 08:29:32;;;;;;;32.57;9.77;;;;;;;8.28;100.00;101861.29;5054007;58;1143274;-74
2022/10/12 08:34:38;;;;;;;20.97;9.23;;;;;;;8.29;100.00;101862.14;5123101;57;1141385;-75
2022/10/12 08:39:45;;;;;;;25.97;8.97;;;;;;;8.28;100.00;101864.39;5139280;57;1141365;-76
2022/10/12 08:45:23;;;;;;;24.87;9.37;;;;;;;8.32;100.00;101864.22;5143920;57;1141390;-75
2022/10/12 08:50:45;;;;;;;22.20;9.57;;;;;;;8.39;100.00;101864.33;5150517;57;1141378;-74
2022/10/12 08:55:51;;;;;;;29.67;9.83;;;;;;;8.49;100.00;101857.30;5150152;57;1141437;-74
2022/10/12 09:01:14;;;;;;;55.67;25.93;;;;;;;8.63;100.00;101854.85;5139784;57;1141680;-68
2022/10/12 09:06:29;;;;;;;17.05;8.63;;;;;;;8.66;100.00;101859.52;5061144;57;1143205;-69
2022/10/12 09:12:15;;;;;;;26.77;9.97;;;;;;;8.76;100.00;101860.77;5058799;57;1141372;-72
2022/10/12 09:17:31;;;;;;;24.03;8.10;;;;;;;8.84;100.00;101851.64;5033820;58;1141135;-71
2022/10/12 09:22:37;;;;;;;26.67;8.50;;;;;;;8.96;100.00;101858.95;5068149;58;1139271;-70
2022/10/12 09:27:46;;;;;;;22.47;8.10;;;;;;;9.05;100.00;101854.52;5121593;57;1139106;-68
2022/10/12 09:33:17;;;;;;;21.13;7.63;;;;;;;9.18;100.00;101856.93;5141195;57;1139049;-69
2022/10/12 09:38:24;;;;;;;23.50;7.80;;;;;;;9.22;100.00;101849.25;5090253;57;1139097;-67
2022/10/12 09:43:30;;;;;;;23.00;7.27;;;;;;;9.33;100.00;101852.66;5141072;57;1139033;-67
2022/10/12 09:48:36;;;;;;;17.70;7.33;;;;;;;9.42;100.00;101853.52;5072676;57;1139081;-71
2022/10/12 09:53:47;;;;;;;28.13;7.60;;;;;;;9.55;100.00;101853.73;5067921;58;1139152;-71
2022/10/12 09:59:00;;;;;;;19.20;7.10;;;;;;;9.72;100.00;101852.39;5117985;57;1138933;-70
2022/10/12 10:04:16;;;;;;;19.60;7.10;;;;;;;9.84;100.00;101852.59;5148389;57;1139078;-71
2022/10/12 10:09:34;;;;;;;16.73;6.73;;;;;;;9.98;100.00;101851.00;5140657;56;1137065;-71
2022/10/12 10:14:44;;;;;;;17.90;8.00;;;;;;;10.14;100.00;101849.23;5076156;57;1141230;-70
2022/10/12 10:19:52;;;;;;;20.67;8.47;;;;;;;10.28;100.00;101848.03;5072551;57;1143198;-70
2022/10/12 10:25:00;;;;;;;17.67;5.30;;;;;;;10.40;100.00;101841.20;5137203;57;1143345;-71
2022/10/12 10:30:20;;;;;;;14.63;5.13;;;;;;;10.56;100.00;101841.58;5148967;57;1143181;-71
2022/10/12 10:35:25;;;;;;;19.17;5.83;;;;;;;10.78;100.00;101829.79;5166674;56;1143224;-71
2022/10/12 10:40:33;;;;;;;16.93;5.37;;;;;;;10.91;100.00;101829.46;5164909;56;1143373;-71
2022/10/12 10:45:51;;;;;;;22.55;6.05;;;;;;;11.05;100.00;101829.50;5228681;56;1143210;-71
2022/10/12 10:51:05;;;;;;;24.83;6.27;;;;;;;11.21;100.00;101825.01;5166462;56;1143148;-71
2022/10/12 10:56:14;;;;;;;20.00;7.03;;;;;;;11.37;100.00;101828.06;5024214;58;1143456;-72
2022/10/12 11:01:55;;;;;;;17.17;6.07;;;;;;;11.54;99.75;101819.95;5079465;57;1142572;-72
2022/10/12 11:07:09;;;;;;;22.83;5.73;;;;;;;11.69;99.78;101823.47;5032141;57;1141104;-71
2022/10/12 11:12:22;;;;;;;;;;;;;;;11.96;100.00;101816.00;5001131;58;1141178;-71
2022/10/12 11:17:41;;;;;;;29.77;7.63;;;;;;;12.18;99.24;101815.52;5042264;57;978371;-71
2022/10/12 11:23:14;;;;;;;22.33;5.80;;;;;;;12.41;99.08;101806.06;4980525;58;1138984;-71
2022/10/12 11:28:20;;;;;;;15.97;6.17;;;;;;;12.81;96.37;101804.80;5090007;57;1139047;-71
2022/10/12 11:33:37;;;;;;;12.23;4.53;;;;;;;13.19;96.63;101796.44;4984206;58;1139317;-71
2022/10/12 11:38:48;;;;;;;22.30;5.13;;;;;;;13.61;96.58;101793.09;5036732;58;1139094;-71
2022/10/12 11:43:56;;;;;;;;;;;;;;;13.91;92.69;101787.42;5066672;58;1139073;-71
2022/10/12 11:49:09;;;;;;;22.43;3.73;;;;;;;14.08;93.33;101790.58;5065557;58;974307;-71
2022/10/12 11:54:37;;;;;;;15.30;4.85;;;;;;;14.02;90.45;101776.41;5062986;58;1137210;-71
2022/10/12 11:59:50;;;;;;;12.60;4.53;;;;;;;13.91;89.82;101780.29;5032472;58;1137051;-70
2022/10/12 12:04:55;;;;;;;;;;;;;;;13.85;89.90;101782.55;5108112;57;1141104;-71
2022/10/12 12:10:01;;;;;;;12.47;3.27;;;;;;;13.79;88.29;101778.52;5044485;57;976353;-71
2022/10/12 12:15:11;;;;;;;10.43;2.30;;;;;;;13.68;88.12;101772.63;4978315;58;1139038;-70
2022/10/12 12:20:47;;;;;;;9.57;3.00;;;;;;;13.60;87.17;101776.30;5034138;57;1141106;-70
2022/10/12 12:26:09;;;;;;;10.80;3.20;;;;;;;13.57;86.79;101767.71;5072118;57;1139252;-72
2022/10/12 12:31:25;;;;;;;8.70;3.20;;;;;;;13.56;85.93;101766.86;5009993;58;1141175;-71
2022/10/12 12:36:37;;;;;;;12.90;3.40;;;;;;;13.54;87.36;101763.45;5055571;57;1139105;-72
2022/10/12 12:41:53;;;;;;;16.53;2.70;;;;;;;13.59;86.82;101763.14;5058039;57;1141387;-71
2022/10/12 12:47:04;;;;;;;8.07;1.80;;;;;;;13.54;85.99;101764.78;5024736;58;1141215;-72
2022/10/12 12:52:21;;;;;;;8.13;2.13;;;;;;;13.53;83.30;101768.39;5051630;58;1139069;-71
2022/10/12 12:57:49;;;;;;;6.40;2.03;;;;;;;13.50;84.09;101766.42;4999070;58;1139071;-71
2022/10/12 13:03:25;;;;;;;12.30;2.80;;;;;;;13.51;83.53;101765.47;5001594;58;1139167;-71
2022/10/12 13:08:57;;;;;;;9.63;2.93;;;;;;;13.46;82.78;101767.11;5024387;58;1139365;-71
2022/10/12 13:14:39;;;;;;;5.13;2.50;;;;;;;13.43;82.82;101760.70;5129588;55;1137085;-72
2022/10/12 13:19:45;;;;;;;8.60;2.33;;;;;;;13.41;82.39;101761.29;5117476;57;1137291;-71
2022/10/12 13:24:54;;;;;;;6.20;2.10;;;;;;;13.37;82.61;101756.66;5210835;56;1136926;-72
2022/10/12 13:30:28;;;;;;;11.33;3.10;;;;;;;13.35;83.03;101752.40;5214049;56;1134930;-73
2022/10/12 13:36:12;;;;;;;8.23;2.53;;;;;;;13.37;82.82;101751.81;5143545;56;1141181;-73
2022/10/12 13:41:20;;;;;;;9.23;2.77;;;;;;;13.40;82.90;101762.24;5190155;56;1139192;-72
2022/10/12 13:46:51;;;;;;;13.33;5.40;;;;;;;13.39;83.29;101748.58;5184537;56;1139091;-71
2022/10/12 13:52:00;;;;;;;12.27;3.50;;;;;;;13.42;82.69;101746.20;5168082;56;1140905;-72
2022/10/12 13:57:16;;;;;;;12.10;3.33;;;;;;;13.43;82.93;101741.25;5180458;56;1141102;-74
2022/10/12 14:02:28;;;;;;;14.90;5.30;;;;;;;13.46;83.17;101738.35;5214895;56;1141173;-72
2022/10/12 14:07:40;;;;;;;10.00;4.07;;;;;;;13.48;82.78;101736.44;5247000;56;1141325;-73
2022/10/12 14:12:50;;;;;;;10.70;6.45;;;;;;;13.52;82.73;101731.29;5301839;55;1141164;-72
2022/10/12 14:17:56;;;;;;;28.77;10.20;;;;;;;13.59;82.82;101735.23;5259977;55;1141043;-72
2022/10/12 14:23:15;;;;;;;18.60;4.97;;;;;;;13.61;82.81;101732.80;5233633;55;1143337;-72
2022/10/12 14:28:36;;;;;;;6.45;2.70;;;;;;;13.62;83.01;101736.31;5165346;56;1141122;-72
2022/10/12 14:33:42;;;;;;;15.43;4.53;;;;;;;13.58;82.06;101733.05;5102209;57;1137071;-72
2022/10/12 14:38:50;;;;;;;13.17;4.87;;;;;;;13.54;81.45;101730.23;5079104;57;1139229;-72
2022/10/12 14:44:15;;;;;;;20.37;5.20;;;;;;;13.50;81.63;101727.89;5136038;56;1139103;-72
2022/10/12 14:49:28;;;;;;;24.43;9.53;;;;;;;13.46;81.62;101725.91;5236809;55;1139292;-72
2022/10/12 14:54:35;;;;;;;42.00;7.13;;;;;;;13.42;81.73;101717.81;5219089;55;1139078;-72
2022/10/12 14:59:40;;;;;;;27.13;6.03;;;;;;;13.37;81.36;101715.95;5172334;56;1139180;-72
2022/10/12 15:04:46;;;;;;;20.50;6.03;;;;;;;13.34;81.50;101705.05;5193806;56;1138986;-72
2022/10/12 15:09:52;;;;;;;15.90;6.20;;;;;;;13.31;81.64;101707.91;5193356;56;1139072;-71
2022/10/12 15:15:03;;;;;;;15.17;4.13;;;;;;;13.33;81.94;101703.83;5182868;56;1139070;-71
2022/10/12 15:20:09;;;;;;;18.40;5.27;;;;;;;13.29;82.07;101697.05;5194496;56;1139037;-72
2022/10/12 15:25:41;;;;;;;29.00;5.47;;;;;;;13.26;82.13;101695.45;5184902;56;1139257;-71
2022/10/12 15:30:47;;;;;;;29.83;6.43;;;;;;;13.21;82.40;101685.62;5196094;56;1141150;-71
2022/10/12 15:35:53;;;;;;;43.73;8.57;;;;;;;13.14;82.76;101688.28;5236396;55;1141118;-72
2022/10/12 15:40:59;;;;;;;37.47;7.77;;;;;;;13.19;83.10;101689.33;5224897;56;1141085;-72
2022/10/12 15:46:07;;;;;;;26.17;6.40;;;;;;;13.15;83.46;101682.05;5182239;55;1141076;-72
2022/10/12 15:51:21;;;;;;;13.67;4.67;;;;;;;13.11;83.96;101683.69;5201299;55;1141126;-71
2022/10/12 15:56:28;;;;;;;17.47;3.73;;;;;;;13.00;84.31;101678.63;5221921;55;1141854;-71
2022/10/12 16:01:35;;;;;;;26.83;3.57;;;;;;;12.88;84.63;101678.14;5154469;56;1141163;-72
2022/10/12 16:06:42;;;;;;;14.50;4.40;;;;;;;12.76;84.97;101683.45;5199216;56;1141203;-71
2022/10/12 16:11:49;;;;;;;35.83;8.67;;;;;;;12.66;85.43;101680.58;5183919;56;1141447;-72
2022/10/12 16:16:54;;;;;;;34.87;8.57;;;;;;;12.53;85.65;101676.55;5181976;56;1141135;-72
2022/10/12 16:22:03;;;;;;;26.83;6.37;;;;;;;12.42;85.83;101680.89;5177887;55;1141117;-72
2022/10/12 16:27:08;;;;;;;15.43;4.50;;;;;;;12.37;86.06;101677.71;5181600;56;1141060;-72
2022/10/12 16:32:15;;;;;;;29.67;9.13;;;;;;;12.30;86.43;101683.89;5217746;56;1141108;-72
2022/10/12 16:37:21;;;;;;;28.33;9.77;;;;;;;12.22;86.76;101677.75;5217572;56;1141113;-72
2022/10/12 16:42:26;;;;;;;88.30;28.30;;;;;;;12.14;87.00;101670.78;5221122;56;1141096;-72
2022/10/12 16:47:32;;;;;;;203.07;74.37;;;;;;;12.00;86.65;101676.62;5218934;56;1143173;-72
2022/10/12 16:52:39;;;;;;;60.23;22.60;;;;;;;11.67;86.65;101672.98;5233998;55;1145331;-72
2022/10/12 16:57:45;;;;;;;133.37;60.40;;;;;;;11.37;87.40;101681.91;5274936;56;1143311;-73
2022/10/12 17:02:51;;;;;;;90.37;33.73;;;;;;;11.37;87.40;101681.91;5276329;55;1145257;-73
2022/10/12 17:07:58;;;;;;;32.37;14.00;;;;;;;11.00;87.73;101681.17;5276161;56;1143421;-73
2022/10/12 17:13:04;;;;;;;28.33;13.53;;;;;;;11.00;87.73;101681.17;5277440;55;1143149;-73
2022/10/12 17:18:13;;;;;;;30.57;12.70;;;;;;;10.84;88.45;101686.53;5232427;56;1143231;-73
2022/10/12 17:23:20;;;;;;;27.73;15.70;;;;;;;10.75;88.41;101692.36;5213247;56;1143117;-74
2022/10/12 17:28:27;;;;;;;125.10;69.90;;;;;;;10.69;88.93;101694.06;5195123;56;1143450;-74
2022/10/12 17:33:33;;;;;;;271.87;149.83;;;;;;;10.65;89.40;101694.71;5227424;56;1145340;-73
2022/10/12 17:38:39;;;;;;;260.50;139.77;;;;;;;10.60;89.42;101688.83;5213135;56;1147323;-74
2022/10/12 17:43:45;;;;;;;439.30;230.77;;;;;;;10.50;89.33;101688.53;5197944;55;1147262;-73
2022/10/12 17:48:52;;;;;;;399.97;197.83;;;;;;;10.32;89.15;101696.20;5165334;56;1147359;-73
2022/10/12 17:53:58;;;;;;;189.27;91.90;;;;;;;10.19;89.12;101689.45;5164566;56;1147370;-73
2022/10/12 17:59:05;;;;;;;126.03;57.77;;;;;;;10.19;89.63;101689.92;5182104;56;1145295;-73
2022/10/12 18:04:12;;;;;;;136.90;69.87;;;;;;;10.20;90.15;101688.98;5252184;55;1145320;-73
2022/10/12 18:09:18;;;;;;;152.53;70.80;;;;;;;10.14;89.75;101686.18;5252121;55;1145288;-73
2022/10/12 18:14:23;;;;;;;104.97;53.43;;;;;;;9.92;89.44;101687.50;5251151;55;1145526;-73
2022/10/12 18:19:29;;;;;;;141.73;69.40;;;;;;;9.76;89.42;101681.75;5212869;55;1141047;-73
2022/10/12 18:24:35;;;;;;;141.63;73.67;;;;;;;9.69;89.60;101699.33;5188849;55;1141169;-73
2022/10/12 18:29:41;;;;;;;175.30;83.80;;;;;;;9.61;89.49;101698.92;5152199;57;1141134;-73
2022/10/12 18:34:47;;;;;;;117.60;62.30;;;;;;;9.57;90.38;101684.16;5213003;56;1141138;-73
2022/10/12 18:39:53;;;;;;;73.10;40.60;;;;;;;9.53;89.97;101694.03;5246766;55;1141170;-73
2022/10/12 18:44:59;;;;;;;73.43;37.00;;;;;;;9.47;90.08;101690.42;5253498;55;1139195;-73
2022/10/12 18:50:07;;;;;;;78.93;34.93;;;;;;;9.36;89.63;101688.34;5268624;56;1139002;-73
2022/10/12 18:55:13;;;;;;;41.77;17.23;;;;;;;9.27;90.08;101688.00;5279081;56;1139021;-73
2022/10/12 19:00:19;;;;;;;38.90;15.15;;;;;;;9.20;89.76;101686.61;5278820;56;1139018;-73
2022/10/12 19:05:25;;;;;;;59.00;22.07;;;;;;;9.23;90.08;101690.41;5221121;56;1139182;-73
2022/10/12 19:10:30;;;;;;;66.47;22.30;;;;;;;9.20;89.85;101687.45;5278872;56;1138870;-73
2022/10/12 19:15:38;;;;;;;25.23;8.50;;;;;;;9.17;89.79;101688.94;5228198;56;1139061;-72
2022/10/12 19:20:44;;;;;;;14.63;5.83;;;;;;;9.13;89.87;101694.87;5278959;56;1136938;-71
2022/10/12 19:25:50;;;;;;;18.63;5.73;;;;;;;9.05;89.52;101692.23;5191136;56;1137000;-73
2022/10/12 19:30:57;;;;;;;25.07;6.73;;;;;;;8.94;89.43;101687.98;5257786;56;1136965;-73
2022/10/12 19:36:05;;;;;;;20.13;5.30;;;;;;;8.77;89.04;101683.58;5277578;56;1134929;-73
2022/10/12 19:41:11;;;;;;;22.00;4.83;;;;;;;8.60;89.04;101690.17;5268402;55;1137000;-73
2022/10/12 19:46:17;;;;;;;21.80;5.50;;;;;;;8.47;88.91;101685.99;5250738;55;1134859;-73
2022/10/12 19:51:25;;;;;;;13.73;4.67;;;;;;;8.40;89.62;101688.56;5251248;56;1134937;-73
2022/10/12 19:56:32;;;;;;;11.08;4.45;;;;;;;8.37;89.91;101682.98;5250786;55;1144172;-73
2022/10/12 20:01:40;;;;;;;13.80;5.00;;;;;;;8.29;89.49;101681.59;5233493;56;1138907;-73
2022/10/12 20:06:45;;;;;;;13.95;4.92;;;;;;;8.07;89.45;101675.23;5218808;56;1136905;-73
2022/10/12 20:11:51;;;;;;;8.77;4.73;;;;;;;7.92;89.61;101672.88;5205031;55;1137106;-73
2022/10/12 20:16:57;;;;;;;16.40;5.73;;;;;;;7.89;90.15;101674.80;5210896;55;1136912;-74
2022/10/12 20:22:03;;;;;;;18.57;5.50;;;;;;;7.88;90.23;101666.50;5244749;55;1138960;-73
2022/10/12 20:27:09;;;;;;;13.03;5.73;;;;;;;7.89;90.87;101666.43;5250841;55;1138946;-73
2022/10/12 20:32:15;;;;;;;26.43;12.07;;;;;;;7.87;90.83;101663.48;5251438;55;1139063;-73
2022/10/12 20:37:20;;;;;;;20.77;9.93;;;;;;;7.82;90.95;101656.25;5251808;55;1141092;-73
2022/10/12 20:42:26;;;;;;;22.27;9.00;;;;;;;7.74;90.83;101660.12;5251744;55;1136940;-72
2022/10/12 20:47:32;;;;;;;19.27;7.63;;;;;;;7.66;90.84;101660.92;5250280;55;1137169;-72
2022/10/12 20:52:41;;;;;;;25.20;9.70;;;;;;;7.63;90.78;101656.30;5220261;55;1139459;-72
2022/10/12 20:57:46;;;;;;;26.43;10.43;;;;;;;7.65;91.17;101657.90;5251469;55;1139020;-73
2022/10/12 21:02:52;;;;;;;36.90;15.40;;;;;;;7.65;91.12;101650.47;5232894;56;1141347;-72
2022/10/12 21:07:58;;;;;;;47.10;19.63;;;;;;;7.52;90.51;101648.88;5203248;55;1140981;-74
2022/10/12 21:13:04;;;;;;;34.45;15.53;;;;;;;7.42;91.29;101646.30;5207896;56;1139263;-73
2022/10/12 21:18:10;;;;;;;38.20;15.40;;;;;;;7.40;91.81;101647.68;5203157;55;1139001;-72
2022/10/12 21:23:16;;;;;;;45.67;16.20;;;;;;;7.28;91.43;101648.25;5209625;55;1139020;-71
2022/10/12 21:28:24;;;;;;;42.30;16.80;;;;;;;7.27;91.88;101653.12;5209721;56;1141111;-72
2022/10/12 21:33:30;;;;;;;45.87;17.50;;;;;;;7.29;91.88;101655.22;5171090;56;1141155;-72
2022/10/12 21:38:36;;;;;;;53.40;20.07;;;;;;;7.28;91.87;101652.20;5165374;56;1140999;-72
2022/10/12 21:43:44;;;;;;;50.55;20.97;;;;;;;7.30;92.42;101655.62;5202979;56;1141116;-73
2022/10/12 21:48:52;;;;;;;39.13;15.67;;;;;;;7.30;92.32;101660.02;5202596;56;1141405;-72
2022/10/12 21:53:59;;;;;;;32.87;15.07;;;;;;;7.27;92.63;101658.38;5186802;56;1139057;-72
2022/10/12 21:59:06;;;;;;;44.03;17.63;;;;;;;7.25;92.50;101658.05;5180634;57;1139001;-72
2022/10/12 22:04:16;;;;;;;40.33;16.90;;;;;;;7.22;92.52;101651.61;5181173;57;1141112;-72
2022/10/12 22:09:22;;;;;;;53.37;24.13;;;;;;;7.28;93.01;101650.03;5181483;57;1141114;-72
2022/10/12 22:14:27;;;;;;;72.37;31.43;;;;;;;7.30;93.44;101642.92;5211499;56;1141338;-72
2022/10/12 22:19:34;;;;;;;69.27;27.63;;;;;;;7.33;93.88;101638.84;5265296;56;1141311;-72
2022/10/12 22:24:39;;;;;;;56.77;22.50;;;;;;;7.33;94.12;101637.52;5268962;55;1141114;-72
2022/10/12 22:29:45;;;;;;;48.73;20.90;;;;;;;7.35;94.25;101642.23;5268971;56;1141287;-72
2022/10/12 22:34:51;;;;;;;57.10;23.00;;;;;;;7.46;94.67;101643.06;5269002;56;1141088;-72
2022/10/12 22:39:57;;;;;;;60.57;22.53;;;;;;;7.53;94.99;101637.42;5268904;56;1141146;-72
2022/10/12 22:45:03;;;;;;;53.20;22.20;;;;;;;7.58;95.01;101635.90;5252569;55;1141156;-72
2022/10/12 22:50:08;;;;;;;66.97;27.37;;;;;;;7.57;94.94;101630.24;5242100;55;1141197;-72
2022/10/12 22:55:15;;;;;;;50.47;21.70;;;;;;;7.56;94.69;101634.66;5242058;55;1141165;-72
2022/10/12 23:00:21;;;;;;;50.80;19.77;;;;;;;7.58;94.09;101630.64;5227914;56;1141246;-71
2022/10/12 23:05:27;;;;;;;51.80;22.13;;;;;;;7.56;94.63;101620.64;5241553;55;1139047;-72
2022/10/12 23:10:33;;;;;;;50.23;21.33;;;;;;;7.51;94.62;101627.42;5241844;55;1139139;-72